Time;durP1;ratioP1;P1;durP2;ratioP2;P2;SDS_P1;SDS_P2;PMS_P1;PMS_P2;Temp;Humidity;BMP_temperature;BMP_pressure;BME280_temperature;BME280_humidity;BME280_pressure;Samples;Min_cycle;Max_cycle;Signal;HPM_P1;HPM_P2
2024/04/10 00:01:09;;;;;;;4.78;1.60;;;;;;;22.12;31.81;102181.28;4550740;26;20250;-66
2024/04/10 00:03:16;;;;;;;;;;;;;;;22.12;32.53;102178.63;4571917;26;20001;-66
2024/04/10 00:05:22;;;;;;;4.97;1.60;;;;;;;22.08;32.03;102171.72;4556243;26;19923;-67
2024/04/10 00:07:24;;;;;;;5.97;1.50;;;;;;;22.10;31.96;102171.63;4563605;26;20009;-67
2024/04/10 00:09:25;;;;;;;;;;;;;;;22.11;32.32;102176.03;4536802;26;20017;-67
2024/04/10 00:11:27;;;;;;;4.13;1.27;;;;;;;22.09;32.42;102173.47;4550732;26;20244;-68
2024/04/10 00:13:30;;;;;;;5.32;1.40;;;;;;;22.13;32.34;102184.84;4571656;26;20013;-67
2024/04/10 00:15:32;;;;;;;4.85;1.40;;;;;;;22.14;32.38;102178.50;4558599;26;20017;-67
2024/04/10 00:17:33;;;;;;;;;;;;;;;22.14;31.66;102187.44;4561405;26;20012;-66
2024/04/10 00:19:36;;;;;;;6.90;1.85;;;;;;;22.12;32.61;102186.66;4568693;26;20025;-67
2024/04/10 00:21:37;;;;;;;;;;;;;;;22.12;32.45;102189.34;4561450;26;20001;-67
2024/04/10 00:23:39;;;;;;;5.97;1.55;;;;;;;22.12;32.51;102189.34;4540215;26;19923;-67
2024/04/10 00:25:41;;;;;;;5.68;1.33;;;;;;;22.11;32.43;102184.06;4547912;26;20016;-67
2024/04/10 00:27:43;;;;;;;4.75;1.50;;;;;;;22.13;32.54;102190.22;4557737;26;20054;-66
2024/04/10 00:29:45;;;;;;;;;;;;;;;22.11;31.78;102195.63;4571603;26;20001;-66
2024/04/10 00:31:50;;;;;;;4.60;1.30;;;;;;;22.08;31.98;102203.00;4563451;26;20411;-66
2024/04/10 00:33:52;;;;;;;4.68;1.20;;;;;;;22.09;32.12;102194.00;4540365;26;20458;-68
2024/04/10 00:35:57;;;;;;;4.90;1.30;;;;;;;22.09;32.43;102197.56;4516098;26;20006;-67
2024/04/10 00:37:59;;;;;;;6.18;1.40;;;;;;;22.07;32.53;102186.09;4554696;26;20021;-67
2024/04/10 00:40:01;;;;;;;5.75;1.48;;;;;;;22.06;32.43;102187.03;4540666;26;20002;-66
2024/04/10 00:42:03;;;;;;;6.05;1.60;;;;;;;22.08;32.37;102186.94;4562373;26;20001;-67
2024/04/10 00:44:04;;;;;;;;;;;;;;;22.09;32.72;102180.63;4541561;26;20002;-67
2024/04/10 00:46:13;;;;;;;5.75;1.48;;;;;;;22.07;32.49;102185.22;4545504;26;19924;-67
2024/04/10 00:48:16;;;;;;;5.82;1.67;;;;;;;22.09;32.35;102177.94;4555642;26;20009;-67
2024/04/10 00:50:18;;;;;;;6.90;1.85;;;;;;;22.08;32.34;102185.13;4540566;26;20021;-67
2024/04/10 00:52:20;;;;;;;;;;;;;;;22.08;32.69;102176.22;4561591;26;20001;-67
2024/04/10 00:54:22;;;;;;;5.75;1.55;;;;;;;22.06;32.63;102179.00;4541521;26;19931;-68
2024/04/10 00:56:24;;;;;;;4.32;1.42;;;;;;;22.08;32.52;102181.56;4512826;26;20003;-67
2024/04/10 00:58:28;;;;;;;4.95;1.33;;;;;;;22.07;32.16;102177.19;4557864;26;20329;-67
2024/04/10 01:00:30;;;;;;;6.47;1.45;;;;;;;22.08;32.06;102182.44;4540390;26;20002;-67
2024/04/10 01:02:31;;;;;;;5.53;1.52;;;;;;;22.08;32.65;102182.44;4559014;26;20335;-67
2024/04/10 01:04:34;;;;;;;;;;;;;;;22.08;31.82;102185.13;4544162;26;20002;-67
2024/04/10 01:06:36;;;;;;;4.75;1.40;;;;;;;22.04;32.42;102186.25;4541938;26;20372;-67
2024/04/10 01:08:38;;;;;;;5.47;1.63;;;;;;;22.06;32.18;102180.81;4550299;26;20070;-66
2024/04/10 01:10:40;;;;;;;5.28;1.40;;;;;;;22.05;32.79;102181.78;4570730;26;20013;-66
2024/04/10 01:12:45;;;;;;;;;;;;;;;22.06;32.07;102187.03;4554114;26;20070;-67
2024/04/10 01:14:47;;;;;;;4.65;1.45;;;;;;;22.04;32.37;102188.09;4565180;26;19930;-66
2024/04/10 01:16:49;;;;;;;6.90;1.38;;;;;;;22.05;32.08;102187.97;4535486;26;20014;-67
2024/04/10 01:18:51;;;;;;;5.28;1.67;;;;;;;22.07;32.40;102188.75;4549854;26;20013;-66
2024/04/10 01:20:53;;;;;;;5.18;1.70;;;;;;;22.06;32.60;102187.03;4570223;26;20500;-66
2024/04/10 01:22:58;;;;;;;;;;;;;;;22.05;32.04;102190.66;4563155;26;20579;-67
2024/04/10 01:25:00;;;;;;;5.20;1.50;;;;;;;22.04;32.81;102198.81;4547166;26;19992;-67
2024/04/10 01:27:02;;;;;;;;;;;;;;;22.05;32.79;102192.50;4542672;26;20664;-66
2024/04/10 01:29:05;;;;;;;4.90;1.40;;;;;;;22.01;32.63;102186.47;4546143;26;19931;-67
2024/04/10 01:31:06;;;;;;;;;;;;;;;22.03;32.85;102192.59;4570837;26;20050;-66
2024/04/10 01:33:08;;;;;;;4.78;1.30;;;;;;;21.96;32.64;102194.75;4558408;26;19973;-67
2024/04/10 01:35:10;;;;;;;4.88;1.42;;;;;;;22.03;32.42;102206.00;4563383;26;20843;-68
2024/04/10 01:37:12;;;;;;;;;;;;;;;22.04;32.77;102206.84;4570998;26;20013;-68
2024/04/10 01:39:14;;;;;;;6.22;1.30;;;;;;;22.01;32.51;102214.09;4552562;26;20332;-67
2024/04/10 01:41:16;;;;;;;;;;;;;;;22.02;32.94;102225.69;4573980;26;20013;-65
2024/04/10 01:43:18;;;;;;;4.97;1.40;;;;;;;22.03;32.18;102219.38;4563114;26;19931;-69
2024/04/10 01:45:20;;;;;;;7.18;1.70;;;;;;;22.04;32.40;102228.28;4560095;26;20005;-68
2024/04/10 01:47:21;;;;;;;6.22;1.55;;;;;;;22.04;32.44;102236.31;4572912;26;20017;-66
2024/04/10 01:49:24;;;;;;;5.05;1.23;;;;;;;22.05;32.11;102238.03;4550266;26;20436;-66
2024/04/10 01:51:25;;;;;;;6.22;1.80;;;;;;;22.04;32.48;102230.94;4572626;26;20012;-66
2024/04/10 01:53:27;;;;;;;5.80;1.60;;;;;;;22.03;32.96;102238.13;4565644;26;20077;-67
2024/04/10 01:55:29;;;;;;;7.00;1.63;;;;;;;22.04;33.01;102245.19;4557422;26;20367;-66
2024/04/10 01:57:31;;;;;;;6.47;1.60;;;;;;;22.01;33.01;102242.72;4541178;26;20002;-66
2024/04/10 01:59:33;;;;;;;;;;;;;;;22.00;32.76;102255.22;4552129;26;20001;-66
2024/04/10 02:01:37;;;;;;;6.10;1.60;;;;;;;21.99;32.85;102258.88;4571405;26;20008;-66
2024/04/10 02:03:38;;;;;;;5.60;1.42;;;;;;;21.99;32.75;102253.53;4567840;26;20005;-67
2024/04/10 02:05:40;;;;;;;5.72;1.63;;;;;;;22.01;32.81;102261.47;4522701;26;20014;-66
2024/04/10 02:07:42;;;;;;;;;;;;;;;22.02;32.42;102266.72;4573561;26;20009;-66
2024/04/10 02:09:44;;;;;;;5.43;1.48;;;;;;;22.02;32.40;102268.56;4554049;26;19931;-66
2024/04/10 02:11:46;;;;;;;5.75;1.55;;;;;;;22.01;32.81;102272.19;4568919;26;20041;-67
2024/04/10 02:13:48;;;;;;;5.18;1.48;;;;;;;22.02;32.08;102272.09;4570021;26;20008;-66
2024/04/10 02:15:50;;;;;;;6.07;1.50;;;;;;;22.02;32.77;102271.22;4552483;26;20041;-66
2024/04/10 02:17:52;;;;;;;5.47;1.30;;;;;;;22.00;32.14;102279.34;4573116;26;20020;-67
2024/04/10 02:19:54;;;;;;;;;;;;;;;22.01;32.13;102280.22;4524810;26;20075;-67
2024/04/10 02:21:56;;;;;;;7.38;1.73;;;;;;;21.97;33.10;102276.88;4564384;26;19923;-66
2024/04/10 02:23:57;;;;;;;6.38;1.50;;;;;;;21.97;33.03;102279.53;4544397;26;20012;-66
2024/04/10 02:26:19;;;;;;;5.63;1.52;;;;;;;21.99;32.94;102279.44;4562922;26;20002;-67
2024/04/10 02:28:21;;;;;;;6.60;1.50;;;;;;;21.97;32.78;102284.03;4542001;26;20020;-66
2024/04/10 02:30:23;;;;;;;;;;;;;;;21.98;32.25;102283.94;4560694;26;20668;-66
2024/04/10 02:32:25;;;;;;;6.68;1.50;;;;;;;21.95;32.24;102281.44;4546569;26;19993;-66
2024/04/10 02:34:27;;;;;;;5.50;1.42;;;;;;;21.98;32.56;102288.44;4544056;26;20076;-68
2024/04/10 02:36:29;;;;;;;7.30;1.50;;;;;;;21.99;32.22;102284.81;4562753;26;20014;-67
2024/04/10 02:38:33;;;;;;;7.13;1.40;;;;;;;21.98;32.26;102297.34;4542467;26;20051;-66
2024/04/10 02:40:34;;;;;;;5.07;1.30;;;;;;;21.99;32.76;102292.84;4557575;26;19997;-66
2024/04/10 02:42:39;;;;;;;5.95;1.52;;;;;;;21.98;32.33;102294.66;4548757;26;20126;-67
2024/04/10 02:44:44;;;;;;;6.70;1.60;;;;;;;21.98;32.94;102294.66;4544223;26;20016;-67
2024/04/10 02:46:46;;;;;;;5.57;1.42;;;;;;;21.99;32.41;102300.88;4562664;26;20002;-67
2024/04/10 02:48:48;;;;;;;5.85;1.60;;;;;;;21.98;32.45;102297.34;4541577;26;20009;-67
2024/04/10 02:50:53;;;;;;;5.43;1.70;;;;;;;21.97;33.04;102292.94;4524062;26;20006;-67
2024/04/10 02:52:55;;;;;;;5.55;1.73;;;;;;;21.96;32.97;102293.03;4549337;26;20006;-67
2024/04/10 02:54:56;;;;;;;;;;;;;;;21.96;32.90;102293.03;4544920;26;20440;-67
2024/04/10 02:56:58;;;;;;;8.23;1.90;;;;;;;21.94;32.99;102298.47;4562232;26;19931;-67
2024/04/10 02:59:00;;;;;;;;;;;;;;;21.95;33.11;102294.84;4542717;26;20021;-66
2024/04/10 03:01:02;;;;;;;5.80;1.60;;;;;;;21.93;32.98;102295.88;4553727;26;19930;-66
2024/04/10 03:03:04;;;;;;;6.43;1.48;;;;;;;21.96;32.59;102295.72;4551777;26;20002;-66
2024/04/10 03:05:06;;;;;;;5.57;1.42;;;;;;;21.96;32.97;102303.75;4544042;26;20509;-66
2024/04/10 03:07:10;;;;;;;5.75;1.40;;;;;;;21.97;32.41;102309.00;4562508;26;20005;-66
2024/04/10 03:09:14;;;;;;;6.38;1.50;;;;;;;21.97;32.88;102308.13;4541560;26;20082;-66
2024/04/10 03:11:18;;;;;;;6.50;1.65;;;;;;;21.99;32.69;102306.22;4552151;26;20343;-67
2024/04/10 03:13:20;;;;;;;6.25;1.63;;;;;;;21.98;33.27;102313.41;4553167;26;20328;-67
2024/04/10 03:15:22;;;;;;;;;;;;;;;21.98;33.20;102310.75;4543283;26;20347;-67
2024/04/10 03:17:23;;;;;;;4.75;1.38;;;;;;;21.94;32.99;102309.19;4562718;26;19947;-66
2024/04/10 03:19:25;;;;;;;5.88;1.75;;;;;;;21.96;32.92;102309.97;4541931;26;20078;-66
2024/04/10 03:21:27;;;;;;;;;;;;;;;21.95;33.28;102310.91;4550185;26;20364;-67
2024/04/10 03:23:29;;;;;;;5.88;1.60;;;;;;;21.92;32.86;102310.22;4562867;26;19931;-66
2024/04/10 03:25:33;;;;;;;6.15;1.50;;;;;;;21.95;33.41;102315.41;4571970;26;20361;-66
2024/04/10 03:27:34;;;;;;;5.43;1.48;;;;;;;21.97;32.42;102321.53;4549011;26;20455;-68
2024/04/10 03:29:37;;;;;;;5.28;1.55;;;;;;;21.97;32.40;102324.19;4509722;26;20366;-66
2024/04/10 03:31:39;;;;;;;6.18;1.50;;;;;;;21.98;32.92;102326.81;4546416;26;20511;-67
2024/04/10 03:33:40;;;;;;;6.95;1.60;;;;;;;21.97;32.39;102329.56;4558374;26;20456;-66
2024/04/10 03:35:42;;;;;;;6.38;1.67;;;;;;;21.96;33.28;102328.72;4541460;26;20002;-68
2024/04/10 03:37:45;;;;;;;5.85;1.50;;;;;;;21.96;32.40;102331.38;4560904;26;20006;-66
2024/04/10 03:39:47;;;;;;;5.82;1.60;;;;;;;21.95;32.58;102324.28;4544051;26;20102;-68
2024/04/10 03:41:49;;;;;;;5.43;1.30;;;;;;;21.96;32.47;102322.50;4544051;26;20470;-66
2024/04/10 03:43:50;;;;;;;6.38;1.73;;;;;;;21.94;32.40;102324.41;4560991;26;20014;-67
2024/04/10 03:45:53;;;;;;;;;;;;;;;21.93;32.91;102328.03;4542030;26;20017;-66
2024/04/10 03:47:55;;;;;;;6.10;1.70;;;;;;;21.90;32.72;102334.44;4557507;26;19930;-66
2024/04/10 03:49:57;;;;;;;7.00;1.50;;;;;;;21.89;32.72;102335.38;4546573;26;20002;-67
2024/04/10 03:51:59;;;;;;;5.75;1.40;;;;;;;21.94;33.05;102345.81;4543467;26;20005;-66
2024/04/10 03:54:00;;;;;;;;;;;;;;;21.95;32.88;102351.09;4562340;26;20001;-65
2024/04/10 03:56:02;;;;;;;7.15;1.65;;;;;;;21.92;32.91;102345.03;4540595;26;19931;-66
2024/04/10 03:58:04;;;;;;;5.32;1.45;;;;;;;21.95;32.74;102347.56;4554821;26;20005;-66
2024/04/10 04:00:07;;;;;;;;;;;;;;;21.95;32.59;102353.75;4549825;26;20160;-66
2024/04/10 04:02:09;;;;;;;5.80;1.52;;;;;;;21.93;33.04;102354.81;4543094;26;19940;-66
2024/04/10 04:04:11;;;;;;;5.45;1.38;;;;;;;21.93;33.29;102354.81;4561440;26;20077;-66
2024/04/10 04:06:13;;;;;;;;;;;;;;;21.92;33.49;102353.97;4541873;26;20071;-66
2024/04/10 04:08:18;;;;;;;5.35;1.55;;;;;;;21.90;33.05;102355.84;4553301;26;20326;-66
2024/04/10 04:10:20;;;;;;;;;;;;;;;21.92;32.56;102363.78;4551465;26;20002;-67
2024/04/10 04:12:21;;;;;;;5.72;1.50;;;;;;;21.88;32.79;102373.81;4543059;26;19934;-66
2024/04/10 04:14:27;;;;;;;5.47;1.50;;;;;;;21.91;32.91;102367.41;4561430;26;20014;-67
2024/04/10 04:16:32;;;;;;;6.85;1.50;;;;;;;21.91;33.43;102367.41;4540324;26;20017;-66
2024/04/10 04:18:35;;;;;;;5.57;1.50;;;;;;;21.91;32.56;102373.66;4520050;26;20013;-66
2024/04/10 04:20:37;;;;;;;5.70;1.63;;;;;;;21.92;33.25;102378.06;4551923;26;20474;-66
2024/04/10 04:22:39;;;;;;;6.72;1.48;;;;;;;21.92;33.22;102386.09;4541011;26;20017;-66
2024/04/10 04:24:40;;;;;;;5.30;1.50;;;;;;;21.94;32.93;102388.69;4549858;26;20005;-66
2024/04/10 04:26:42;;;;;;;7.25;1.65;;;;;;;21.96;32.98;102394.84;4571379;26;20129;-67
2024/04/10 04:28:45;;;;;;;5.25;1.52;;;;;;;21.93;33.24;102393.16;4561926;26;20002;-66
2024/04/10 04:30:49;;;;;;;4.70;1.40;;;;;;;21.94;32.89;102392.22;4556804;26;20006;-66
2024/04/10 04:32:51;;;;;;;7.28;1.85;;;;;;;21.92;32.55;102393.25;4539157;26;20153;-66
2024/04/10 04:34:54;;;;;;;6.15;1.50;;;;;;;21.91;33.47;102397.75;4548106;26;19998;-66
2024/04/10 04:36:56;;;;;;;4.47;1.30;;;;;;;21.92;32.77;102399.50;4571440;26;20002;-66
2024/04/10 04:38:57;;;;;;;;;;;;;;;21.91;33.04;102403.13;4564458;26;20002;-66
2024/04/10 04:40:59;;;;;;;5.80;1.88;;;;;;;21.86;32.85;102403.38;4555177;26;19923;-67
2024/04/10 04:43:08;;;;;;;5.45;1.50;;;;;;;21.90;32.50;102403.22;4570832;26;20012;-66
2024/04/10 04:45:10;;;;;;;4.78;1.55;;;;;;;21.88;33.32;102403.28;4547392;26;20074;-66
2024/04/10 04:47:11;;;;;;;5.97;1.70;;;;;;;21.89;32.70;102399.66;4570807;26;20013;-66
2024/04/10 04:49:14;;;;;;;;;;;;;;;21.91;32.93;102404.91;4533256;26;20017;-66
2024/04/10 04:51:16;;;;;;;;;;;;;;;21.89;33.21;102410.38;4554427;26;19995;-66
2024/04/10 04:53:18;;;;;;;5.50;1.45;;;;;;;21.87;32.94;102409.59;4570776;26;20417;-65
2024/04/10 04:55:20;;;;;;;;;;;;;;;21.90;32.67;102411.25;4551080;26;20046;-66
2024/04/10 04:57:22;;;;;;;5.35;1.42;;;;;;;21.88;33.12;102408.66;4568173;26;19931;-66
2024/04/10 04:59:24;;;;;;;6.15;1.50;;;;;;;21.90;33.03;102406.75;4535057;26;20412;-66
2024/04/10 05:01:26;;;;;;;;;;;;;;;21.91;32.65;102407.59;4551618;26;20020;-67
2024/04/10 05:05:48;;;;;;;6.43;2.10;;;;;;;21.86;33.50;102419.44;4548262;26;20034;-66
2024/04/10 05:07:49;;;;;;;6.90;1.73;;;;;;;21.85;33.31;102423.06;4570423;26;20001;-65
2024/04/10 05:09:52;;;;;;;5.25;1.55;;;;;;;21.86;33.35;102427.50;4568352;26;20056;-66
2024/04/10 05:11:54;;;;;;;5.78;1.10;;;;;;;21.88;33.03;102424.72;4556067;26;19997;-66
2024/04/10 05:13:57;;;;;;;5.65;1.58;;;;;;;21.88;33.00;102430.06;4573543;26;20005;-66
2024/04/10 05:15:58;;;;;;;;;;;;;;;21.89;33.28;102431.81;4554294;26;20359;-66
2024/04/10 05:18:00;;;;;;;5.15;1.42;;;;;;;21.86;33.29;102432.84;4570071;26;19924;-67
2024/04/10 05:20:04;;;;;;;6.03;1.48;;;;;;;21.89;33.03;102437.16;4570993;26;20009;-65
2024/04/10 05:22:06;;;;;;;6.00;1.60;;;;;;;21.90;32.97;102435.38;4548911;26;20347;-66
2024/04/10 05:24:08;;;;;;;;;;;;;;;21.90;32.79;102438.91;4543392;26;20007;-66
2024/04/10 05:26:13;;;;;;;6.18;1.63;;;;;;;21.88;33.38;102445.28;4550136;26;20375;-66
2024/04/10 05:28:15;;;;;;;5.85;1.70;;;;;;;21.89;32.91;102449.69;4567954;26;20002;-67
2024/04/10 05:30:17;;;;;;;7.10;1.67;;;;;;;21.90;33.42;102452.28;4570667;26;20017;-69
2024/04/10 05:32:18;;;;;;;;;;;;;;;21.86;33.29;102459.63;4521179;26;20002;-66
2024/04/10 05:34:20;;;;;;;7.82;1.98;;;;;;;21.84;32.72;102455.31;4573471;26;20278;-66
2024/04/10 05:36:22;;;;;;;5.15;1.50;;;;;;;21.83;32.88;102458.94;4558194;26;20017;-66
2024/04/10 05:38:24;;;;;;;6.63;1.52;;;;;;;21.83;32.89;102464.28;4565415;26;20463;-67
2024/04/10 05:40:26;;;;;;;6.18;1.60;;;;;;;21.86;33.30;102474.84;4570522;26;20001;-66
2024/04/10 05:42:28;;;;;;;;;;;;;;;21.88;32.94;102474.75;4552722;26;20042;-67
2024/04/10 05:44:30;;;;;;;4.50;1.40;;;;;;;21.84;33.72;102476.75;4573330;26;19931;-65
2024/04/10 05:46:31;;;;;;;7.43;1.75;;;;;;;21.87;32.81;102476.56;4560835;26;20073;-66
2024/04/10 05:48:33;;;;;;;;;;;;;;;21.88;32.97;102483.63;4563000;26;20002;-66
2024/04/10 05:50:35;;;;;;;5.32;1.33;;;;;;;21.85;32.80;102489.19;4571249;26;19923;-66
2024/04/10 05:52:40;;;;;;;5.68;1.67;;;;;;;21.86;33.24;102490.91;4551963;26;20002;-66
2024/04/10 05:54:47;;;;;;;6.32;1.70;;;;;;;21.86;33.20;102502.50;4573075;26;19997;-67
2024/04/10 05:56:49;;;;;;;8.13;1.63;;;;;;;21.86;33.56;102502.50;4528793;26;20453;-67
2024/04/10 05:58:51;;;;;;;6.38;1.77;;;;;;;21.86;33.11;102507.84;4561600;26;20013;-66
2024/04/10 06:00:53;;;;;;;6.28;1.63;;;;;;;21.86;33.48;102515.03;4571852;26;20005;-66
2024/04/10 06:02:57;;;;;;;4.88;1.50;;;;;;;21.85;33.34;102514.16;4551481;26;20136;-67
2024/04/10 06:04:59;;;;;;;5.50;1.67;;;;;;;21.84;33.43;102523.13;4573084;26;20013;-68
2024/04/10 06:07:02;;;;;;;6.13;1.33;;;;;;;21.88;32.83;102509.56;4563841;26;20016;-67
2024/04/10 06:09:04;;;;;;;6.57;1.70;;;;;;;21.89;32.92;102517.53;4559475;26;20339;-67
2024/04/10 06:11:06;;;;;;;;;;;;;;;21.89;33.41;102517.53;4573043;26;20006;-68
2024/04/10 06:13:08;;;;;;;6.28;1.67;;;;;;;21.86;33.00;102520.38;4565006;26;19991;-68
2024/04/10 06:15:10;;;;;;;5.78;1.63;;;;;;;21.89;32.85;102522.03;4542296;26;20006;-67
2024/04/10 06:17:11;;;;;;;6.20;1.60;;;;;;;21.91;33.12;102517.44;4548449;26;20482;-68
2024/04/10 06:19:13;;;;;;;;;;;;;;;21.91;33.62;102518.31;4558799;26;20033;-67
2024/04/10 06:21:15;;;;;;;6.00;1.90;;;;;;;21.86;33.38;102526.59;4542531;26;19930;-67
2024/04/10 06:23:17;;;;;;;;;;;;;;;21.88;32.69;102522.97;4545058;26;20009;-67
2024/04/10 06:25:19;;;;;;;7.03;1.90;;;;;;;21.84;33.15;102522.28;4570319;26;19923;-68
2024/04/10 06:27:20;;;;;;;4.85;1.48;;;;;;;21.85;33.14;102524.00;4568656;26;20069;-67
2024/04/10 06:29:25;;;;;;;5.25;1.38;;;;;;;21.83;33.15;102521.38;4553387;26;20001;-67
2024/04/10 06:31:27;;;;;;;6.07;1.65;;;;;;;21.82;33.78;102522.38;4572952;26;20080;-67
2024/04/10 06:33:30;;;;;;;6.68;1.63;;;;;;;21.85;33.50;102529.38;4554010;26;20002;-67
2024/04/10 06:35:32;;;;;;;5.80;1.60;;;;;;;21.86;33.61;102531.94;4568146;26;20006;-66
2024/04/10 06:37:35;;;;;;;7.13;1.75;;;;;;;21.89;33.47;102536.28;4569581;26;20013;-67
2024/04/10 06:39:37;;;;;;;6.78;1.60;;;;;;;21.89;33.28;102538.09;4551726;26;20005;-67
2024/04/10 06:41:39;;;;;;;;;;;;;;;21.91;32.81;102538.84;4572685;26;20034;-68
2024/04/10 06:43:40;;;;;;;6.53;1.85;;;;;;;21.84;33.13;102547.22;4556961;26;19993;-68
2024/04/10 06:45:42;;;;;;;;;;;;;;;21.85;33.31;102548.97;4565746;26;20459;-67
2024/04/10 06:47:44;;;;;;;5.47;1.55;;;;;;;21.83;33.25;102556.22;4569970;26;19924;-67
2024/04/10 06:49:51;;;;;;;6.72;1.65;;;;;;;21.85;33.08;102559.69;4551552;26;20059;-67
2024/04/10 06:51:53;;;;;;;5.47;1.48;;;;;;;21.86;33.40;102571.28;4572398;26;20012;-67
2024/04/10 06:53:54;;;;;;;;;;;;;;;21.84;33.08;102571.34;4558359;26;20006;-67
2024/04/10 06:56:01;;;;;;;5.32;1.50;;;;;;;21.81;33.07;102570.63;4563175;26;19927;-66
2024/04/10 06:58:04;;;;;;;4.85;1.60;;;;;;;21.82;33.64;102575.94;4569578;26;20086;-67
2024/04/10 07:00:12;;;;;;;;;;;;;;;21.84;33.13;102582.06;4562287;26;20002;-67
2024/04/10 07:02:15;;;;;;;7.18;1.73;;;;;;;21.83;33.41;102579.47;4541317;26;20382;-67
2024/04/10 07:04:17;;;;;;;7.55;2.00;;;;;;;21.85;33.20;102577.56;4555620;26;20005;-67
2024/04/10 07:06:19;;;;;;;;;;;;;;;21.88;33.52;102581.91;4549944;26;20013;-67
2024/04/10 07:08:21;;;;;;;5.38;1.80;;;;;;;21.85;33.23;102591.81;4544191;26;19932;-67
2024/04/10 07:10:25;;;;;;;7.63;1.67;;;;;;;21.88;33.75;102592.63;4561127;26;20002;-66
2024/04/10 07:12:27;;;;;;;6.55;1.70;;;;;;;21.89;33.85;102587.16;4541448;26;20432;-66
2024/04/10 07:14:34;;;;;;;;;;;;;;;21.89;33.50;102587.16;4522191;26;20333;-67
2024/04/10 07:16:36;;;;;;;6.95;1.85;;;;;;;21.86;33.54;102582.84;4550694;26;19924;-66
2024/04/10 07:18:38;;;;;;;6.18;1.65;;;;;;;21.88;32.91;102579.22;4543643;26;20003;-66
2024/04/10 07:20:42;;;;;;;7.70;1.90;;;;;;;21.90;32.81;102590.72;4562082;26;20475;-67
2024/04/10 07:22:44;;;;;;;;;;;;;;;21.90;33.65;102596.09;4542175;26;20002;-67
2024/04/10 07:24:50;;;;;;;5.57;1.70;;;;;;;21.87;33.89;102594.41;4548651;26;19924;-67
2024/04/10 07:26:51;;;;;;;6.47;1.70;;;;;;;21.93;33.36;102595.91;4561653;26;20508;-67
2024/04/10 07:28:55;;;;;;;5.60;1.55;;;;;;;21.98;32.82;102599.19;4569528;26;20325;-66
2024/04/10 07:30:58;;;;;;;6.57;1.90;;;;;;;22.02;32.80;102590.91;4560451;26;20021;-66
2024/04/10 07:32:59;;;;;;;6.68;2.05;;;;;;;22.06;32.97;102596.13;4541614;26;20006;-67
2024/04/10 07:35:01;;;;;;;7.97;2.00;;;;;;;22.06;32.99;102588.94;4550947;26;20342;-67
2024/04/10 07:37:03;;;;;;;6.15;1.92;;;;;;;22.09;32.64;102599.50;4553779;26;20002;-67
2024/04/10 07:39:06;;;;;;;;;;;;;;;22.12;33.52;102604.66;4541779;26;20026;-67
2024/04/10 07:41:09;;;;;;;6.50;1.80;;;;;;;22.12;32.88;102602.00;4568467;26;19942;-66
2024/04/10 07:43:11;;;;;;;6.47;1.85;;;;;;;22.12;32.69;102601.13;4541478;26;20026;-67
2024/04/10 07:45:13;;;;;;;;;;;;;;;22.11;32.97;102600.25;4549379;26;20476;-67
2024/04/10 07:47:15;;;;;;;7.00;2.13;;;;;;;22.12;32.72;102607.34;4556120;26;19924;-67
2024/04/10 07:49:17;;;;;;;6.05;1.60;;;;;;;22.12;33.09;102602.00;4509288;26;20002;-67
2024/04/10 07:51:20;;;;;;;6.97;1.90;;;;;;;22.12;33.19;102596.63;4563362;26;20001;-66
2024/04/10 07:53:22;;;;;;;5.90;1.73;;;;;;;22.13;32.90;102598.38;4541235;26;20009;-66
2024/04/10 07:55:24;;;;;;;7.22;1.60;;;;;;;22.12;33.11;102602.00;4546140;26;20002;-66
2024/04/10 07:57:25;;;;;;;5.93;1.63;;;;;;;22.13;33.13;102601.03;4558481;26;20006;-67
2024/04/10 07:59:27;;;;;;;6.97;2.00;;;;;;;22.14;33.06;102592.06;4540982;26;20006;-66
2024/04/10 08:01:29;;;;;;;;;;;;;;;22.14;33.43;102600.09;4560570;26;20012;-67
2024/04/10 08:03:31;;;;;;;5.40;1.65;;;;;;;22.14;33.53;102594.75;4544495;26;19935;-67
2024/04/10 08:05:33;;;;;;;7.95;1.80;;;;;;;22.16;32.93;102589.28;4554290;26;20019;-68
2024/04/10 08:07:38;;;;;;;5.97;1.70;;;;;;;22.22;33.07;102594.31;4547457;26;19999;-69
2024/04/10 08:09:40;;;;;;;7.85;2.00;;;;;;;22.25;33.39;102593.28;4540820;26;20002;-69
2024/04/10 08:11:44;;;;;;;7.30;1.90;;;;;;;22.26;32.73;102595.88;4548279;26;20079;-68
2024/04/10 08:13:46;;;;;;;7.45;1.98;;;;;;;22.26;33.03;102600.38;4546617;26;20406;-69
2024/04/10 08:15:59;;;;;;;6.20;1.80;;;;;;;22.29;33.07;102597.53;4558431;25;20071;-70
2024/04/10 08:18:01;;;;;;;9.45;2.22;;;;;;;22.27;32.70;102596.75;4568929;26;20455;-69
2024/04/10 08:20:04;;;;;;;6.57;2.03;;;;;;;22.29;32.79;102593.03;4549154;26;20006;-69
2024/04/10 08:22:07;;;;;;;9.70;2.40;;;;;;;22.27;33.25;102594.94;4553378;26;20328;-69
2024/04/10 08:24:08;;;;;;;7.93;1.85;;;;;;;22.31;33.28;102591.13;4556087;26;20331;-68
2024/04/10 08:26:15;;;;;;;7.85;2.10;;;;;;;22.32;32.90;102594.66;4564363;26;20427;-69
2024/04/10 08:28:20;;;;;;;7.55;2.00;;;;;;;22.32;32.40;102591.97;4551019;26;20529;-70
2024/04/10 08:30:22;;;;;;;11.20;2.22;;;;;;;22.31;32.44;102585.75;4570487;26;20351;-70
2024/04/10 08:32:24;;;;;;;;;;;;;;;22.33;32.57;102589.25;4552555;26;20002;-69
2024/04/10 08:34:26;;;;;;;9.23;2.53;;;;;;;22.33;32.87;102589.25;4558130;26;19931;-68
2024/04/10 08:36:28;;;;;;;8.50;2.70;;;;;;;22.37;32.92;102591.72;4550263;26;20017;-68
2024/04/10 08:38:29;;;;;;;;;;;;;;;22.38;32.92;102598.81;4541465;26;19998;-68
2024/04/10 08:40:33;;;;;;;8.60;2.33;;;;;;;22.34;33.25;102593.63;4539424;26;19931;-70
2024/04/10 08:42:37;;;;;;;10.05;2.30;;;;;;;22.37;32.61;102597.09;4549360;26;20002;-70
2024/04/10 08:44:39;;;;;;;10.10;2.10;;;;;;;22.36;32.81;102598.03;4566182;26;20451;-71
2024/04/10 08:46:43;;;;;;;9.55;2.53;;;;;;;22.38;32.60;102605.06;4558396;26;20005;-70
2024/04/10 08:48:46;;;;;;;7.90;2.38;;;;;;;22.37;33.16;102603.34;4551722;26;20020;-67
2024/04/10 08:50:49;;;;;;;9.10;2.30;;;;;;;22.35;32.73;102607.91;4522567;26;20047;-69
2024/04/10 08:52:53;;;;;;;10.00;2.38;;;;;;;22.36;32.30;102606.06;4549509;26;20017;-71
2024/04/10 08:54:55;;;;;;;7.32;2.20;;;;;;;22.39;32.70;102611.31;4513193;26;20377;-70
2024/04/10 08:56:57;;;;;;;9.13;2.40;;;;;;;22.37;32.81;102605.13;4558320;26;20002;-69
2024/04/10 08:58:59;;;;;;;7.43;2.35;;;;;;;22.37;32.32;102606.00;4559887;26;20081;-70
2024/04/10 09:01:01;;;;;;;;;;;;;;;22.38;32.56;102613.13;4542183;26;20441;-71
2024/04/10 09:03:04;;;;;;;7.75;2.55;;;;;;;22.39;32.94;102614.00;4558513;26;19932;-68
2024/04/10 09:05:06;;;;;;;10.90;2.00;;;;;;;22.43;33.20;102618.22;4557813;26;20005;-70
2024/04/10 09:07:08;;;;;;;11.15;2.53;;;;;;;22.42;32.18;102620.06;4563438;26;20002;-69
2024/04/10 09:09:11;;;;;;;;;;;;;;;22.41;32.40;102628.19;4542331;26;20014;-69
2024/04/10 09:11:21;;;;;;;9.70;2.17;;;;;;;22.39;32.99;102625.56;4551758;26;19991;-70
2024/04/10 09:13:24;;;;;;;11.52;2.25;;;;;;;22.40;32.75;102619.25;4511351;26;20017;-68
2024/04/10 09:15:26;;;;;;;10.55;2.17;;;;;;;22.42;32.44;102624.53;4543089;26;20021;-69
2024/04/10 09:17:28;;;;;;;;;;;;;;;22.41;32.71;102625.50;4541885;26;20017;-72
2024/04/10 09:19:30;;;;;;;8.10;2.10;;;;;;;22.39;32.66;102630.94;4551216;26;19924;-70
2024/04/10 09:21:32;;;;;;;;;;;;;;;22.40;32.18;102619.25;4552760;26;20028;-72
2024/04/10 09:23:35;;;;;;;11.02;2.40;;;;;;;22.39;32.19;102616.69;4547085;26;19931;-70
2024/04/10 09:25:38;;;;;;;9.18;2.25;;;;;;;22.41;32.23;102621.00;4558155;26;20017;-70
2024/04/10 09:27:39;;;;;;;8.20;2.40;;;;;;;22.45;32.47;102616.34;4565819;26;20009;-69
2024/04/10 09:29:41;;;;;;;8.48;1.90;;;;;;;22.45;32.82;102625.22;4549084;26;20002;-70
2024/04/10 09:31:47;;;;;;;9.27;2.10;;;;;;;22.47;32.59;102622.47;4563202;26;20002;-72
2024/04/10 09:33:49;;;;;;;8.23;2.10;;;;;;;22.48;32.35;102626.91;4554349;26;20002;-71
2024/04/10 09:35:55;;;;;;;6.93;2.08;;;;;;;22.46;32.20;102626.09;4550739;26;20341;-70
2024/04/10 09:37:59;;;;;;;9.32;2.03;;;;;;;22.47;31.78;102622.47;4560394;26;20335;-69
2024/04/10 09:40:01;;;;;;;10.18;1.90;;;;;;;22.48;32.16;102638.47;4561850;26;19997;-69
2024/04/10 09:42:22;;;;;;;8.80;2.03;;;;;;;22.43;31.79;102621.78;4544320;26;20491;-70
2024/04/10 09:44:29;;;;;;;7.47;1.90;;;;;;;22.44;31.66;102630.69;4524539;26;20108;-70